Time;durP1;ratioP1;P1;durP2;ratioP2;P2;SDS_P1;SDS_P2;PMS_P1;PMS_P2;Temp;Humidity;BMP_temperature;BMP_pressure;BME280_temperature;BME280_humidity;BME280_pressure;Samples;Min_cycle;Max_cycle;Signal;HPM_P1;HPM_P2
2022/12/16 00:00:02;;;;;;;72.00;35.10;;;;;;;-4.41;87.32;100322.36;102209;1307;81021;-60
2022/12/16 00:02:37;;;;;;;70.30;34.30;;;;;;;-4.37;87.42;100316.67;102192;1307;81874;-60
2022/12/16 00:05:11;;;;;;;71.90;34.30;;;;;;;-4.35;87.22;100307.80;102228;1307;99975;-62
2022/12/16 00:07:46;;;;;;;78.00;38.00;;;;;;;-4.33;87.36;100305.51;102268;1310;88394;-60
2022/12/16 00:10:22;;;;;;;77.30;36.80;;;;;;;-4.31;87.27;100303.63;102167;1310;95140;-60
2022/12/16 00:13:01;;;;;;;78.40;36.50;;;;;;;-4.28;87.32;100304.51;102214;1307;77215;-60
2022/12/16 00:15:40;;;;;;;70.20;35.10;;;;;;;-4.25;87.32;100302.05;102138;1307;82517;-61
2022/12/16 00:18:19;;;;;;;64.00;33.50;;;;;;;-4.25;87.40;100301.14;102179;1307;98698;-62
2022/12/16 00:20:54;;;;;;;66.90;33.10;;;;;;;-4.25;87.23;100315.36;102167;1306;87888;-62
2022/12/16 00:23:33;;;;;;;69.70;36.00;;;;;;;-4.24;87.39;100318.32;102171;1311;95543;-59
2022/12/16 00:26:08;;;;;;;65.50;33.50;;;;;;;-4.24;87.45;100322.90;102161;1306;81077;-60
2022/12/16 00:28:42;;;;;;;;;;;;;;;-4.26;87.28;100322.66;102234;1308;81880;-60
2022/12/16 00:31:28;;;;;;;69.60;32.90;;;;;;;-4.24;87.33;100317.78;102160;1306;98654;-60
2022/12/16 00:34:03;;;;;;;64.50;31.70;;;;;;;-4.20;87.13;100310.14;102160;1310;87716;-60
2022/12/16 00:36:39;;;;;;;61.20;29.70;;;;;;;-4.17;87.17;100316.68;102169;1306;95143;-60
2022/12/16 00:39:16;;;;;;;63.50;30.20;;;;;;;-4.17;87.00;100312.08;102203;1310;80738;-61
2022/12/16 00:41:52;;;;;;;60.50;28.90;;;;;;;-4.13;87.04;100320.98;102186;1307;82760;-61
2022/12/16 00:44:33;;;;;;;55.70;28.60;;;;;;;-4.10;86.77;100320.73;102187;1320;98384;-61
2022/12/16 00:47:10;;;;;;;57.70;29.80;;;;;;;-4.09;86.97;100323.55;102191;1306;85855;-62
2022/12/16 00:49:47;;;;;;;59.00;29.30;;;;;;;-4.07;86.90;100326.22;102195;1310;93947;-60
2022/12/16 00:52:27;;;;;;;57.00;28.90;;;;;;;-4.08;86.60;100327.69;102198;1307;81087;-59
2022/12/16 00:55:06;;;;;;;54.50;27.30;;;;;;;-4.12;86.49;100326.49;102218;1307;80942;-58
2022/12/16 00:57:41;;;;;;;58.10;29.80;;;;;;;-4.15;86.42;100327.04;102185;1310;98225;-59
2022/12/16 01:00:19;;;;;;;60.10;29.60;;;;;;;-4.20;86.35;100323.70;102203;1307;88235;-61
2022/12/16 01:02:54;;;;;;;61.30;30.60;;;;;;;-4.25;86.57;100323.27;102155;1310;93246;-61
2022/12/16 01:05:31;;;;;;;59.70;29.70;;;;;;;-4.24;86.55;100320.05;102134;1306;81258;-59
2022/12/16 01:08:14;;;;;;;60.80;29.50;;;;;;;-4.20;86.71;100317.14;102159;1310;80979;-59
2022/12/16 01:10:56;;;;;;;62.40;31.30;;;;;;;-4.19;86.50;100322.73;102146;1306;99730;-59
2022/12/16 01:13:33;;;;;;;62.20;30.30;;;;;;;-4.14;86.59;100326.14;102153;1307;89201;-61
2022/12/16 01:16:10;;;;;;;61.70;31.20;;;;;;;-4.12;86.73;100328.43;102145;1306;95100;-63
2022/12/16 01:18:44;;;;;;;56.20;28.50;;;;;;;-4.11;86.64;100331.05;102212;1307;82023;-60
2022/12/16 01:21:20;;;;;;;63.10;30.10;;;;;;;-4.11;86.83;100338.56;102174;1307;83085;-60
2022/12/16 01:23:54;;;;;;;56.60;28.90;;;;;;;-4.08;86.63;100332.61;102113;1310;98690;-60
2022/12/16 01:26:34;;;;;;;64.90;30.30;;;;;;;-4.06;86.67;100329.48;102160;1310;89140;-60
2022/12/16 01:29:09;;;;;;;57.20;31.20;;;;;;;-4.04;86.63;100325.69;102152;1306;95624;-59
2022/12/16 01:31:47;;;;;;;62.50;30.50;;;;;;;-3.99;86.55;100323.40;102158;1310;77090;-59
2022/12/16 01:34:21;;;;;;;63.40;30.00;;;;;;;-3.96;86.63;100320.40;102221;1306;81222;-61
2022/12/16 01:36:55;;;;;;;64.20;32.40;;;;;;;-4.00;86.29;100318.67;102166;1306;96902;-61
2022/12/16 01:39:29;;;;;;;63.40;30.30;;;;;;;-4.03;86.57;100315.54;102203;1307;88634;-62
2022/12/16 01:42:14;;;;;;;63.50;31.10;;;;;;;-4.07;86.40;100308.59;102191;1307;94583;-60
2022/12/16 01:44:54;;;;;;;61.70;29.70;;;;;;;-4.17;86.43;100300.80;102259;1307;79711;-61
2022/12/16 01:47:35;;;;;;;70.40;33.40;;;;;;;-4.23;86.20;100294.32;102262;1307;82845;-62
2022/12/16 01:50:16;;;;;;;66.10;31.80;;;;;;;-4.25;86.48;100295.00;102179;1310;96758;-60
2022/12/16 01:52:57;;;;;;;67.20;31.00;;;;;;;-4.26;86.17;100292.23;102199;1306;89233;-60
2022/12/16 01:55:38;;;;;;;59.10;29.80;;;;;;;-4.26;86.37;100291.16;102200;1307;96379;-60
2022/12/16 01:58:16;;;;;;;59.40;30.20;;;;;;;-4.27;86.32;100270.84;102213;1310;81334;-60
2022/12/16 02:00:51;;;;;;;63.90;32.00;;;;;;;-4.27;86.45;100265.77;102190;1307;82196;-61
2022/12/16 02:03:31;;;;;;;66.70;31.50;;;;;;;-4.23;86.50;100280.08;102125;1307;98319;-61
2022/12/16 02:06:09;;;;;;;67.00;32.20;;;;;;;-4.21;86.37;100282.44;102170;1307;87058;-61
2022/12/16 02:08:43;;;;;;;66.80;30.90;;;;;;;-4.25;86.56;100276.89;102161;1306;95236;-61
2022/12/16 02:11:45;;;;;;;67.40;32.40;;;;;;;-4.24;86.51;100274.04;102188;1310;79761;-62
2022/12/16 02:14:50;;;;;;;57.90;28.10;;;;;;;-4.23;86.29;100272.55;102082;1310;81674;-58
2022/12/16 02:17:41;;;;;;;62.20;30.00;;;;;;;-4.27;86.42;100273.34;102200;1307;97576;-60
2022/12/16 02:21:12;;;;;;;59.30;30.50;;;;;;;-4.32;86.34;100273.81;102238;1306;88626;-61
2022/12/16 02:24:16;;;;;;;63.80;31.00;;;;;;;-4.38;86.20;100271.75;102233;1310;93965;-61
2022/12/16 02:27:21;;;;;;;61.70;30.30;;;;;;;-4.41;86.44;100269.70;102209;1307;82966;-61
2022/12/16 02:30:34;;;;;;;63.50;30.20;;;;;;;-4.41;86.43;100275.44;102219;1307;82936;-59
2022/12/16 02:33:28;;;;;;;58.70;29.40;;;;;;;-4.38;86.37;100268.42;102132;1310;98458;-62
2022/12/16 02:36:12;;;;;;;64.30;29.80;;;;;;;-4.43;86.30;100262.09;102195;1307;89716;-61
2022/12/16 02:38:59;;;;;;;60.80;29.70;;;;;;;-4.43;86.63;100259.45;102153;1306;95402;-61
2022/12/16 02:41:49;;;;;;;62.50;30.50;;;;;;;-4.43;86.32;100256.48;102216;1310;79682;-61
2022/12/16 02:44:35;;;;;;;60.00;30.30;;;;;;;-4.47;86.51;100250.40;102129;1310;82987;-62
2022/12/16 02:47:09;;;;;;;59.20;29.10;;;;;;;-4.45;86.61;100249.20;102220;1307;97888;-62
2022/12/16 02:49:56;;;;;;;67.00;29.90;;;;;;;-4.40;86.60;100253.98;102165;1310;88600;-59
2022/12/16 02:52:34;;;;;;;66.80;32.30;;;;;;;-4.38;86.56;100257.53;102177;1312;92884;-59
2022/12/16 02:55:11;;;;;;;65.90;28.70;;;;;;;-4.34;86.68;100252.17;102155;1307;81130;-62
2022/12/16 02:58:20;;;;;;;61.10;30.50;;;;;;;-4.31;86.62;100247.26;102165;1307;82500;-61
2022/12/16 03:01:06;;;;;;;60.50;30.30;;;;;;;-4.30;86.45;100238.70;102145;1310;98785;-61
2022/12/16 03:03:50;;;;;;;64.60;29.90;;;;;;;-4.29;86.14;100239.73;102207;1307;89055;-61
2022/12/16 03:06:26;;;;;;;61.90;30.20;;;;;;;-4.33;86.43;100231.39;102216;1310;93128;-62
2022/12/16 03:09:04;;;;;;;61.80;28.60;;;;;;;-4.35;86.48;100225.30;102220;1307;79010;-61
2022/12/16 03:11:47;;;;;;;61.00;29.40;;;;;;;-4.37;86.27;100223.86;102227;1307;83493;-61
2022/12/16 03:14:29;;;;;;;59.80;30.30;;;;;;;-4.41;86.42;100220.99;102220;1306;98763;-61
2022/12/16 03:17:05;;;;;;;59.90;28.30;;;;;;;-4.46;86.29;100225.92;102224;1310;87141;-61
2022/12/16 03:19:42;;;;;;;63.20;30.80;;;;;;;-4.51;86.29;100223.05;102234;1308;95477;-59
2022/12/16 03:22:24;;;;;;;59.30;28.90;;;;;;;-4.54;86.24;100221.46;102169;1307;81034;-59
2022/12/16 03:24:59;;;;;;;59.50;29.90;;;;;;;-4.59;86.37;100218.15;102160;1307;82831;-59
2022/12/16 03:27:45;;;;;;;62.20;30.60;;;;;;;-4.58;86.43;100226.50;102171;1306;99400;-60
2022/12/16 03:30:29;;;;;;;63.00;28.70;;;;;;;-4.57;86.61;100221.38;102179;1310;88968;-62
2022/12/16 03:33:10;;;;;;;52.50;24.30;;;;;;;-4.57;86.66;100223.61;102093;1306;95385;-62
2022/12/16 03:35:54;;;;;;;54.30;28.70;;;;;;;-4.52;86.62;100215.38;102132;1308;79220;-61
2022/12/16 03:38:37;;;;;;;61.30;28.20;;;;;;;-4.48;86.36;100211.30;102165;1307;80118;-61
2022/12/16 03:41:17;;;;;;;62.10;28.70;;;;;;;-4.45;86.47;100207.35;102155;1308;98571;-61
2022/12/16 03:43:54;;;;;;;66.50;31.70;;;;;;;-4.42;86.43;100204.34;102174;1310;88119;-61
2022/12/16 03:46:30;;;;;;;62.90;29.00;;;;;;;-4.38;86.31;100194.09;102205;1310;93620;-59
2022/12/16 03:49:04;;;;;;;64.20;30.40;;;;;;;-4.42;86.42;100188.16;102161;1306;80428;-62
2022/12/16 03:51:38;;;;;;;64.40;30.20;;;;;;;-4.41;86.29;100186.55;102237;1307;82867;-62
2022/12/16 03:54:14;;;;;;;62.00;31.00;;;;;;;-4.41;86.46;100177.60;102210;1307;99381;-59
2022/12/16 03:56:48;;;;;;;61.00;30.20;;;;;;;-4.42;86.55;100173.08;102239;1308;88953;-59
2022/12/16 03:59:25;;;;;;;62.70;28.90;;;;;;;-4.41;86.27;100172.12;102188;1307;95870;-61
2022/12/16 04:01:59;;;;;;;55.50;25.60;;;;;;;-4.40;86.46;100168.54;102182;1307;80852;-62
2022/12/16 04:04:34;;;;;;;58.50;28.30;;;;;;;-4.43;86.43;100167.36;102215;1310;82893;-60
2022/12/16 04:07:23;;;;;;;52.30;23.10;;;;;;;-4.47;86.33;100167.42;102211;1307;98710;-59
2022/12/16 04:09:57;;;;;;;63.00;30.80;;;;;;;-4.49;86.31;100177.40;102162;1307;87640;-60
2022/12/16 04:24:21;;;;;;;65.20;29.50;;;;;;;-4.57;86.59;100171.59;102177;1307;88440;-62
